sensor_id;sensor_type;location;lat;lon;timestamp;pressure;altitude;pressure_sealevel;temperature;humidity
81033;BME280;70514;52.478;6.102;2023-06-10T00:02:20;101671.53;;;18.97;43.01
81033;BME280;70514;52.478;6.102;2023-06-10T00:04:47;101669.84;;;18.93;43.00
81033;BME280;70514;52.478;6.102;2023-06-10T00:07:13;101669.91;;;18.90;43.04
81033;BME280;70514;52.478;6.102;2023-06-10T00:09:38;101665.63;;;18.83;43.18
81033;BME280;70514;52.478;6.102;2023-06-10T00:12:05;101673.47;;;18.83;43.18
81033;BME280;70514;52.478;6.102;2023-06-10T00:14:32;101673.50;;;18.80;43.24
81033;BME280;70514;52.478;6.102;2023-06-10T00:16:57;101672.72;;;18.74;43.27
81033;BME280;70514;52.478;6.102;2023-06-10T00:19:23;101671.84;;;18.72;43.33
81033;BME280;70514;52.478;6.102;2023-06-10T00:21:58;101677.13;;;18.67;43.35
81033;BME280;70514;52.478;6.102;2023-06-10T00:24:24;101682.38;;;18.64;43.59
81033;BME280;70514;52.478;6.102;2023-06-10T00:26:49;101674.56;;;18.62;43.53
81033;BME280;70514;52.478;6.102;2023-06-10T00:29:15;101674.63;;;18.59;43.66
81033;BME280;70514;52.478;6.102;2023-06-10T00:31:40;101673.75;;;18.57;43.64
81033;BME280;70514;52.478;6.102;2023-06-10T00:34:09;101674.66;;;18.53;43.80
81033;BME280;70514;52.478;6.102;2023-06-10T00:36:34;101679.88;;;18.50;43.59
81033;BME280;70514;52.478;6.102;2023-06-10T00:39:01;101681.66;;;18.47;43.96
81033;BME280;70514;52.478;6.102;2023-06-10T00:41:26;101685.16;;;18.46;43.92
81033;BME280;70514;52.478;6.102;2023-06-10T00:43:52;101678.25;;;18.42;44.01
81033;BME280;70514;52.478;6.102;2023-06-10T00:46:17;101674.81;;;18.37;43.86
81033;BME280;70514;52.478;6.102;2023-06-10T00:48:44;101684.44;;;18.32;44.03
81033;BME280;70514;52.478;6.102;2023-06-10T00:51:10;101685.31;;;18.29;44.04
81033;BME280;70514;52.478;6.102;2023-06-10T00:53:40;101692.31;;;18.25;44.21
81033;BME280;70514;52.478;6.102;2023-06-10T00:56:07;101688.00;;;18.21;44.37
81033;BME280;70514;52.478;6.102;2023-06-10T00:58:32;101682.84;;;18.18;44.11
81033;BME280;70514;52.478;6.102;2023-06-10T01:00:58;101681.97;;;18.16;44.48
81033;BME280;70514;52.478;6.102;2023-06-10T01:03:23;101682.88;;;18.12;44.42
81033;BME280;70514;52.478;6.102;2023-06-10T01:06:18;101682.03;;;18.10;44.50
81033;BME280;70514;52.478;6.102;2023-06-10T01:11:19;101689.88;;;18.07;44.49
81033;BME280;70514;52.478;6.102;2023-06-10T01:13:48;101690.75;;;18.06;44.50
81033;BME280;70514;52.478;6.102;2023-06-10T01:16:17;101684.72;;;18.00;44.52
81033;BME280;70514;52.478;6.102;2023-06-10T01:18:42;101689.13;;;17.96;44.79
81033;BME280;70514;52.478;6.102;2023-06-10T01:21:12;101696.94;;;17.95;44.60
81033;BME280;70514;52.478;6.102;2023-06-10T01:23:38;101689.16;;;17.89;44.91
81033;BME280;70514;52.478;6.102;2023-06-10T01:26:09;101687.44;;;17.88;45.00
81033;BME280;70514;52.478;6.102;2023-06-10T01:28:39;101690.94;;;17.85;44.76
81033;BME280;70514;52.478;6.102;2023-06-10T01:31:31;101701.41;;;17.79;45.06
81033;BME280;70514;52.478;6.102;2023-06-10T01:34:00;101694.44;;;17.78;45.08
81033;BME280;70514;52.478;6.102;2023-06-10T01:36:26;101693.63;;;17.76;45.19
81033;BME280;70514;52.478;6.102;2023-06-10T01:38:53;101696.25;;;17.71;45.14
81033;BME280;70514;52.478;6.102;2023-06-10T01:41:19;101698.00;;;17.71;45.20
81033;BME280;70514;52.478;6.102;2023-06-10T01:43:47;101705.81;;;17.68;45.42
81033;BME280;70514;52.478;6.102;2023-06-10T01:46:14;101703.25;;;17.63;45.45
81033;BME280;70514;52.478;6.102;2023-06-10T01:48:41;101707.63;;;17.61;45.57
81033;BME280;70514;52.478;6.102;2023-06-10T01:51:07;101703.25;;;17.59;45.43
81033;BME280;70514;52.478;6.102;2023-06-10T01:53:32;101704.16;;;17.55;45.64
81033;BME280;70514;52.478;6.102;2023-06-10T01:55:58;101705.03;;;17.54;45.75
81033;BME280;70514;52.478;6.102;2023-06-10T01:58:23;101710.22;;;17.52;45.89
81033;BME280;70514;52.478;6.102;2023-06-10T02:00:48;101703.31;;;17.48;45.43
81033;BME280;70514;52.478;6.102;2023-06-10T02:03:14;101710.25;;;17.46;45.92
81033;BME280;70514;52.478;6.102;2023-06-10T02:05:39;101704.22;;;17.41;45.99
81033;BME280;70514;52.478;6.102;2023-06-10T02:08:05;101705.97;;;17.39;46.34
81033;BME280;70514;52.478;6.102;2023-06-10T02:10:30;101705.13;;;17.37;46.02
81033;BME280;70514;52.478;6.102;2023-06-10T02:12:56;101706.00;;;17.34;46.15
81033;BME280;70514;52.478;6.102;2023-06-10T02:15:21;101713.81;;;17.31;46.78
81033;BME280;70514;52.478;6.102;2023-06-10T02:17:46;101711.25;;;17.27;46.61
81033;BME280;70514;52.478;6.102;2023-06-10T02:20:14;101715.59;;;17.23;46.56
81033;BME280;70514;52.478;6.102;2023-06-10T02:22:39;101710.44;;;17.17;47.11
81033;BME280;70514;52.478;6.102;2023-06-10T02:25:05;101713.94;;;17.15;46.81
81033;BME280;70514;52.478;6.102;2023-06-10T02:27:30;101717.41;;;17.08;47.11
81033;BME280;70514;52.478;6.102;2023-06-10T02:29:57;101707.00;;;17.05;47.18
81033;BME280;70514;52.478;6.102;2023-06-10T02:32:22;101706.16;;;17.04;47.10
81033;BME280;70514;52.478;6.102;2023-06-10T02:34:48;101717.44;;;17.03;47.18
81033;BME280;70514;52.478;6.102;2023-06-10T02:37:14;101718.34;;;16.99;47.46
81033;BME280;70514;52.478;6.102;2023-06-10T02:39:40;101722.66;;;16.95;47.35
81033;BME280;70514;52.478;6.102;2023-06-10T02:42:05;101715.75;;;16.91;47.89
81033;BME280;70514;52.478;6.102;2023-06-10T02:44:31;101714.91;;;16.88;47.69
81033;BME280;70514;52.478;6.102;2023-06-10T02:46:57;101720.97;;;16.85;47.81
81033;BME280;70514;52.478;6.102;2023-06-10T02:49:22;101717.53;;;16.82;47.97
81033;BME280;70514;52.478;6.102;2023-06-10T02:51:48;101719.25;;;16.80;47.88
81033;BME280;70514;52.478;6.102;2023-06-10T02:54:13;101710.59;;;16.75;48.30
81033;BME280;70514;52.478;6.102;2023-06-10T02:56:39;101719.25;;;16.75;48.26
81033;BME280;70514;52.478;6.102;2023-06-10T02:59:07;101714.94;;;16.73;48.67
81033;BME280;70514;52.478;6.102;2023-06-10T03:01:33;101709.75;;;16.70;48.89
81033;BME280;70514;52.478;6.102;2023-06-10T03:04:02;101718.44;;;16.66;48.72
81033;BME280;70514;52.478;6.102;2023-06-10T03:06:27;101711.50;;;16.62;48.97
81033;BME280;70514;52.478;6.102;2023-06-10T03:08:53;101708.88;;;16.54;49.00
81033;BME280;70514;52.478;6.102;2023-06-10T03:11:19;101711.47;;;16.55;49.29
81033;BME280;70514;52.478;6.102;2023-06-10T03:13:44;101722.75;;;16.59;49.01
81033;BME280;70514;52.478;6.102;2023-06-10T03:16:10;101718.41;;;16.53;49.15
81033;BME280;70514;52.478;6.102;2023-06-10T03:18:37;101720.16;;;16.51;49.65
81033;BME280;70514;52.478;6.102;2023-06-10T03:21:03;101706.31;;;16.46;49.62
81033;BME280;70514;52.478;6.102;2023-06-10T03:23:31;101708.91;;;16.46;49.69
81033;BME280;70514;52.478;6.102;2023-06-10T03:25:58;101700.25;;;16.34;49.69
81033;BME280;70514;52.478;6.102;2023-06-10T03:28:23;101723.63;;;16.44;49.73
81033;BME280;70514;52.478;6.102;2023-06-10T03:30:48;101721.06;;;16.41;50.08
81033;BME280;70514;52.478;6.102;2023-06-10T03:33:14;101713.25;;;16.35;50.06
81033;BME280;70514;52.478;6.102;2023-06-10T03:35:41;101725.38;;;16.36;50.37
81033;BME280;70514;52.478;6.102;2023-06-10T03:38:07;101723.66;;;16.37;50.12
81033;BME280;70514;52.478;6.102;2023-06-10T03:40:32;101734.91;;;16.34;50.36
81033;BME280;70514;52.478;6.102;2023-06-10T03:42:58;101727.13;;;16.36;50.41
81033;BME280;70514;52.478;6.102;2023-06-10T03:45:23;101734.91;;;16.37;50.53
81033;BME280;70514;52.478;6.102;2023-06-10T03:47:49;101737.53;;;16.36;50.27
81033;BME280;70514;52.478;6.102;2023-06-10T03:50:15;101738.38;;;16.38;50.73
81033;BME280;70514;52.478;6.102;2023-06-10T03:52:41;101740.97;;;16.38;50.61
81033;BME280;70514;52.478;6.102;2023-06-10T03:55:07;101736.66;;;16.37;50.72
81033;BME280;70514;52.478;6.102;2023-06-10T03:57:32;101741.84;;;16.38;50.82
81033;BME280;70514;52.478;6.102;2023-06-10T03:59:58;101744.44;;;16.41;50.83
81033;BME280;70514;52.478;6.102;2023-06-10T04:02:23;101742.69;;;16.43;50.85
81033;BME280;70514;52.478;6.102;2023-06-10T04:04:49;101737.50;;;16.46;50.75
81033;BME280;70514;52.478;6.102;2023-06-10T04:07:14;101740.09;;;16.49;50.96
81033;BME280;70514;52.478;6.102;2023-06-10T04:09:39;101742.69;;;16.52;50.98
81033;BME280;70514;52.478;6.102;2023-06-10T04:12:05;101740.06;;;16.54;51.05
81033;BME280;70514;52.478;6.102;2023-06-10T04:14:35;101744.44;;;16.60;51.04
81033;BME280;70514;52.478;6.102;2023-06-10T04:17:01;101745.31;;;16.60;51.08
81033;BME280;70514;52.478;6.102;2023-06-10T04:19:27;101745.31;;;16.63;51.14
81033;BME280;70514;52.478;6.102;2023-06-10T04:21:53;101751.38;;;16.67;51.30
81033;BME280;70514;52.478;6.102;2023-06-10T04:24:19;101747.88;;;16.69;51.44
81033;BME280;70514;52.478;6.102;2023-06-10T04:26:44;101755.69;;;16.75;51.14
81033;BME280;70514;52.478;6.102;2023-06-10T04:29:10;101757.41;;;16.78;51.32
81033;BME280;70514;52.478;6.102;2023-06-10T04:31:35;101757.41;;;16.81;51.46
81033;BME280;70514;52.478;6.102;2023-06-10T04:34:01;101754.81;;;16.82;51.57
81033;BME280;70514;52.478;6.102;2023-06-10T04:36:26;101766.94;;;16.86;51.69
81033;BME280;70514;52.478;6.102;2023-06-10T04:38:54;101759.97;;;16.90;51.63
81033;BME280;70514;52.478;6.102;2023-06-10T04:41:19;101759.97;;;16.93;51.67
81033;BME280;70514;52.478;6.102;2023-06-10T04:43:45;101760.81;;;16.98;51.83
81033;BME280;70514;52.478;6.102;2023-06-10T04:46:10;101760.81;;;17.03;51.76
81033;BME280;70514;52.478;6.102;2023-06-10T04:48:35;101760.75;;;17.10;51.73
81033;BME280;70514;52.478;6.102;2023-06-10T04:51:02;101755.53;;;17.18;51.53
81033;BME280;70514;52.478;6.102;2023-06-10T04:53:27;101766.78;;;17.27;51.53
81033;BME280;70514;52.478;6.102;2023-06-10T04:55:53;101777.09;;;17.47;51.17
81033;BME280;70514;52.478;6.102;2023-06-10T04:58:19;101768.22;;;17.83;50.87
81033;BME280;70514;52.478;6.102;2023-06-10T05:00:44;101764.34;;;18.36;49.99
81033;BME280;70514;52.478;6.102;2023-06-10T05:03:10;101766.41;;;18.93;49.11
81033;BME280;70514;52.478;6.102;2023-06-10T05:05:35;101763.97;;;19.53;48.37
81033;BME280;70514;52.478;6.102;2023-06-10T05:08:00;101759.81;;;19.98;47.80
81033;BME280;70514;52.478;6.102;2023-06-10T05:10:26;101764.38;;;20.41;47.57
81033;BME280;70514;52.478;6.102;2023-06-10T05:12:51;101763.44;;;20.91;46.95
81033;BME280;70514;52.478;6.102;2023-06-10T05:15:16;101757.47;;;21.29;47.08
81033;BME280;70514;52.478;6.102;2023-06-10T05:17:42;101754.16;;;21.60;46.39
81033;BME280;70514;52.478;6.102;2023-06-10T05:20:07;101748.19;;;21.91;46.15
81033;BME280;70514;52.478;6.102;2023-06-10T05:22:33;101752.84;;;22.15;46.14
81033;BME280;70514;52.478;6.102;2023-06-10T05:24:59;101753.81;;;22.46;45.94
81033;BME280;70514;52.478;6.102;2023-06-10T05:27:25;101753.91;;;22.76;45.38
81033;BME280;70514;52.478;6.102;2023-06-10T05:29:50;101768.06;;;23.01;45.15
81033;BME280;70514;52.478;6.102;2023-06-10T05:32:17;101757.66;;;23.27;44.81
81033;BME280;70514;52.478;6.102;2023-06-10T05:34:42;101770.31;;;23.44;44.50
81033;BME280;70514;52.478;6.102;2023-06-10T05:37:08;101765.50;;;23.60;44.32
81033;BME280;70514;52.478;6.102;2023-06-10T05:39:35;101761.38;;;23.79;43.97
81033;BME280;70514;52.478;6.102;2023-06-10T05:42:03;101771.88;;;24.07;43.71
81033;BME280;70514;52.478;6.102;2023-06-10T05:44:29;101766.84;;;24.27;43.51
81033;BME280;70514;52.478;6.102;2023-06-10T05:46:54;101764.75;;;24.37;42.96
81033;BME280;70514;52.478;6.102;2023-06-10T05:49:19;101776.00;;;24.42;43.23
81033;BME280;70514;52.478;6.102;2023-06-10T05:51:45;101772.34;;;24.46;43.12
81033;BME280;70514;52.478;6.102;2023-06-10T05:54:10;101767.69;;;24.54;42.72
81033;BME280;70514;52.478;6.102;2023-06-10T05:56:35;101774.31;;;24.66;42.44
81033;BME280;70514;52.478;6.102;2023-06-10T05:59:01;101774.38;;;24.63;42.70
81033;BME280;70514;52.478;6.102;2023-06-10T06:01:26;101772.28;;;24.23;43.36
81033;BME280;70514;52.478;6.102;2023-06-10T06:03:51;101767.22;;;23.61;44.41
81033;BME280;70514;52.478;6.102;2023-06-10T06:06:17;101767.38;;;23.25;44.13
81033;BME280;70514;52.478;6.102;2023-06-10T06:08:45;101769.88;;;23.30;44.00
81033;BME280;70514;52.478;6.102;2023-06-10T06:11:10;101768.97;;;23.31;43.98
81033;BME280;70514;52.478;6.102;2023-06-10T06:13:36;101768.34;;;23.21;44.21
81033;BME280;70514;52.478;6.102;2023-06-10T06:16:01;101769.59;;;23.10;44.67
81033;BME280;70514;52.478;6.102;2023-06-10T06:18:26;101768.38;;;22.91;45.07
81033;BME280;70514;52.478;6.102;2023-06-10T06:20:52;101770.03;;;22.61;45.51
81033;BME280;70514;52.478;6.102;2023-06-10T06:23:17;101769.09;;;22.29;45.71
81033;BME280;70514;52.478;6.102;2023-06-10T06:25:42;101776.72;;;22.04;46.09
81033;BME280;70514;52.478;6.102;2023-06-10T06:28:09;101772.91;;;21.81;45.91
81033;BME280;70514;52.478;6.102;2023-06-10T06:30:35;101764.63;;;21.60;46.20
81033;BME280;70514;52.478;6.102;2023-06-10T06:33:01;101772.00;;;21.43;45.99
81033;BME280;70514;52.478;6.102;2023-06-10T06:35:26;101775.75;;;21.30;45.74
81033;BME280;70514;52.478;6.102;2023-06-10T06:37:52;101781.28;;;21.16;46.01
81033;BME280;70514;52.478;6.102;2023-06-10T06:40:17;101773.59;;;21.07;45.84
81033;BME280;70514;52.478;6.102;2023-06-10T06:42:42;101779.81;;;21.02;45.37
81033;BME280;70514;52.478;6.102;2023-06-10T06:45:08;101771.16;;;20.98;45.74
81033;BME280;70514;52.478;6.102;2023-06-10T06:47:34;101772.09;;;20.94;45.63
81033;BME280;70514;52.478;6.102;2023-06-10T06:49:59;101775.66;;;20.90;45.59
81033;BME280;70514;52.478;6.102;2023-06-10T06:52:24;101772.28;;;20.84;45.53
81033;BME280;70514;52.478;6.102;2023-06-10T06:54:50;101774.00;;;20.86;45.27
81033;BME280;70514;52.478;6.102;2023-06-10T06:57:15;101774.75;;;20.93;45.23
81033;BME280;70514;52.478;6.102;2023-06-10T06:59:40;101776.44;;;20.95;45.04
81033;BME280;70514;52.478;6.102;2023-06-10T07:02:11;101772.91;;;20.98;44.94
81033;BME280;70514;52.478;6.102;2023-06-10T07:04:37;101783.31;;;21.01;45.34
81033;BME280;70514;52.478;6.102;2023-06-10T07:07:07;101779.78;;;21.03;45.11
81033;BME280;70514;52.478;6.102;2023-06-10T07:09:32;101785.81;;;21.07;45.12
81033;BME280;70514;52.478;6.102;2023-06-10T07:11:58;101780.47;;;21.13;44.84
81033;BME280;70514;52.478;6.102;2023-06-10T07:14:23;101786.50;;;21.18;44.68
81033;BME280;70514;52.478;6.102;2023-06-10T07:16:48;101788.09;;;21.25;44.62
81033;BME280;70514;52.478;6.102;2023-06-10T07:19:14;101783.47;;;21.36;44.73
81033;BME280;70514;52.478;6.102;2023-06-10T07:21:40;101786.09;;;21.38;44.60
81033;BME280;70514;52.478;6.102;2023-06-10T07:24:05;101783.38;;;21.41;44.92
81033;BME280;70514;52.478;6.102;2023-06-10T07:26:31;101789.44;;;21.44;44.64
81033;BME280;70514;52.478;6.102;2023-06-10T07:28:56;101784.16;;;21.46;44.76
81033;BME280;70514;52.478;6.102;2023-06-10T07:31:23;101785.84;;;21.48;44.90
81033;BME280;70514;52.478;6.102;2023-06-10T07:33:49;101784.00;;;21.53;44.62
81033;BME280;70514;52.478;6.102;2023-06-10T07:36:14;101791.69;;;21.61;44.54
81033;BME280;70514;52.478;6.102;2023-06-10T07:38:40;101791.66;;;21.62;44.34
81033;BME280;70514;52.478;6.102;2023-06-10T07:41:07;101793.25;;;21.70;44.41
81033;BME280;70514;52.478;6.102;2023-06-10T07:43:33;101800.22;;;21.71;44.41
81033;BME280;70514;52.478;6.102;2023-06-10T07:45:58;101791.44;;;21.72;44.48
81033;BME280;70514;52.478;6.102;2023-06-10T07:48:26;101795.63;;;21.80;44.36
81033;BME280;70514;52.478;6.102;2023-06-10T07:50:52;101793.66;;;21.90;44.54
81033;BME280;70514;52.478;6.102;2023-06-10T07:53:17;101789.19;;;21.96;44.15
81033;BME280;70514;52.478;6.102;2023-06-10T07:55:42;101791.53;;;22.07;44.00
81033;BME280;70514;52.478;6.102;2023-06-10T07:58:08;101794.09;;;22.10;43.81
81033;BME280;70514;52.478;6.102;2023-06-10T08:00:33;101798.28;;;22.17;43.96
81033;BME280;70514;52.478;6.102;2023-06-10T08:02:58;101793.81;;;22.21;43.65
81033;BME280;70514;52.478;6.102;2023-06-10T08:05:24;101795.47;;;22.25;43.65
81033;BME280;70514;52.478;6.102;2023-06-10T08:07:49;101788.38;;;22.28;43.68
81033;BME280;70514;52.478;6.102;2023-06-10T08:10:15;101792.56;;;22.35;43.89
81033;BME280;70514;52.478;6.102;2023-06-10T08:12:40;101790.69;;;22.40;43.70
81033;BME280;70514;52.478;6.102;2023-06-10T08:15:06;101780.16;;;22.42;43.36
81033;BME280;70514;52.478;6.102;2023-06-10T08:17:31;101789.69;;;22.46;43.53
81033;BME280;70514;52.478;6.102;2023-06-10T08:19:57;101791.38;;;22.49;43.38
81033;BME280;70514;52.478;6.102;2023-06-10T08:22:22;101784.31;;;22.51;43.54
81033;BME280;70514;52.478;6.102;2023-06-10T08:24:48;101789.38;;;22.58;43.25
81033;BME280;70514;52.478;6.102;2023-06-10T08:29:39;101790.78;;;22.70;43.11
81033;BME280;70514;52.478;6.102;2023-06-10T08:32:05;101801.13;;;22.77;42.78
81033;BME280;70514;52.478;6.102;2023-06-10T08:34:34;101793.13;;;22.82;42.94
81033;BME280;70514;52.478;6.102;2023-06-10T08:37:00;101792.06;;;22.89;42.68
81033;BME280;70514;52.478;6.102;2023-06-10T08:39:26;101790.09;;;22.97;42.79
81033;BME280;70514;52.478;6.102;2023-06-10T08:44:31;101793.38;;;23.05;42.68
81033;BME280;70514;52.478;6.102;2023-06-10T08:47:03;101797.63;;;23.09;42.60
81033;BME280;70514;52.478;6.102;2023-06-10T08:49:33;101801.06;;;23.11;42.46
81033;BME280;70514;52.478;6.102;2023-06-10T08:51:59;101800.13;;;23.14;42.66
81033;BME280;70514;52.478;6.102;2023-06-10T08:54:31;101800.91;;;23.17;42.20
81033;BME280;70514;52.478;6.102;2023-06-10T08:56:59;101791.19;;;23.21;42.06
81033;BME280;70514;52.478;6.102;2023-06-10T08:59:26;101795.38;;;23.26;42.19
81033;BME280;70514;52.478;6.102;2023-06-10T09:01:52;101778.75;;;23.26;41.81
81033;BME280;70514;52.478;6.102;2023-06-10T09:04:18;101786.34;;;23.37;41.76
81033;BME280;70514;52.478;6.102;2023-06-10T09:06:45;101791.28;;;23.47;41.82
81033;BME280;70514;52.478;6.102;2023-06-10T09:09:11;101793.56;;;23.59;41.83
81033;BME280;70514;52.478;6.102;2023-06-10T09:11:38;101788.72;;;23.73;41.44
81033;BME280;70514;52.478;6.102;2023-06-10T09:14:03;101793.03;;;23.76;41.35
81033;BME280;70514;52.478;6.102;2023-06-10T09:16:29;101788.50;;;23.81;40.75
81033;BME280;70514;52.478;6.102;2023-06-10T09:18:55;101782.06;;;23.90;40.95
81033;BME280;70514;52.478;6.102;2023-06-10T09:21:24;101776.66;;;23.94;40.94
81033;BME280;70514;52.478;6.102;2023-06-10T09:23:50;101779.03;;;24.03;40.66
81033;BME280;70514;52.478;6.102;2023-06-10T09:26:17;101782.25;;;24.11;40.45
81033;BME280;70514;52.478;6.102;2023-06-10T09:28:48;101781.31;;;24.14;40.66
81033;BME280;70514;52.478;6.102;2023-06-10T09:31:15;101784.72;;;24.16;40.31
81033;BME280;70514;52.478;6.102;2023-06-10T09:33:44;101770.66;;;24.19;40.00
81033;BME280;70514;52.478;6.102;2023-06-10T09:36:10;101780.16;;;24.23;40.44
81033;BME280;70514;52.478;6.102;2023-06-10T09:38:36;101777.34;;;24.29;39.88
81033;BME280;70514;52.478;6.102;2023-06-10T09:41:03;101776.34;;;24.31;39.76
81033;BME280;70514;52.478;6.102;2023-06-10T09:43:43;101776.13;;;24.39;39.94
81033;BME280;70514;52.478;6.102;2023-06-10T09:46:19;101778.38;;;24.49;39.78
81033;BME280;70514;52.478;6.102;2023-06-10T09:48:47;101780.03;;;24.52;39.53
81033;BME280;70514;52.478;6.102;2023-06-10T09:51:14;101777.41;;;24.52;39.57
81033;BME280;70514;52.478;6.102;2023-06-10T09:53:40;101782.56;;;24.55;39.34
81033;BME280;70514;52.478;6.102;2023-06-10T09:56:05;101784.94;;;24.63;39.34
81033;BME280;70514;52.478;6.102;2023-06-10T09:58:38;101775.91;;;24.70;39.09
81033;BME280;70514;52.478;6.102;2023-06-10T10:01:06;101781.81;;;24.76;39.08
81033;BME280;70514;52.478;6.102;2023-06-10T10:03:32;101772.94;;;24.79;38.87
81033;BME280;70514;52.478;6.102;2023-06-10T10:05:58;101771.03;;;24.82;38.90
81033;BME280;70514;52.478;6.102;2023-06-10T10:08:24;101783.78;;;24.96;38.83
81033;BME280;70514;52.478;6.102;2023-06-10T10:10:50;101779.25;;;25.00;38.26
81033;BME280;70514;52.478;6.102;2023-06-10T10:13:16;101782.56;;;25.05;38.47
81033;BME280;70514;52.478;6.102;2023-06-10T10:15:41;101786.94;;;25.06;37.98
81033;BME280;70514;52.478;6.102;2023-06-10T10:18:09;101771.94;;;25.08;38.24
81033;BME280;70514;52.478;6.102;2023-06-10T10:20:42;101766.53;;;25.11;37.79
81033;BME280;70514;52.478;6.102;2023-06-10T10:23:14;101779.41;;;25.18;37.73
81033;BME280;70514;52.478;6.102;2023-06-10T10:25:42;101767.78;;;25.24;37.26
81033;BME280;70514;52.478;6.102;2023-06-10T10:28:10;101772.91;;;25.28;37.10
81033;BME280;70514;52.478;6.102;2023-06-10T10:30:49;101778.00;;;25.33;37.45
81033;BME280;70514;52.478;6.102;2023-06-10T10:33:47;101766.59;;;25.32;37.69
81033;BME280;70514;52.478;6.102;2023-06-10T10:36:15;101765.50;;;25.38;37.09
81033;BME280;70514;52.478;6.102;2023-06-10T10:38:41;101767.16;;;25.40;37.02
81033;BME280;70514;52.478;6.102;2023-06-10T10:41:07;101767.09;;;25.42;36.92
81033;BME280;70514;52.478;6.102;2023-06-10T10:43:33;101763.59;;;25.42;36.78
81033;BME280;70514;52.478;6.102;2023-06-10T10:46:02;101761.78;;;25.44;36.76
81033;BME280;70514;52.478;6.102;2023-06-10T10:48:37;101750.81;;;25.54;36.73
81033;BME280;70514;52.478;6.102;2023-06-10T10:51:03;101757.47;;;25.64;36.63
81033;BME280;70514;52.478;6.102;2023-06-10T10:53:29;101757.09;;;25.73;36.01
81033;BME280;70514;52.478;6.102;2023-06-10T10:56:06;101757.19;;;25.70;36.04
81033;BME280;70514;52.478;6.102;2023-06-10T10:58:32;101752.00;;;25.69;36.43
81033;BME280;70514;52.478;6.102;2023-06-10T11:00:57;101754.66;;;25.69;36.42
81033;BME280;70514;52.478;6.102;2023-06-10T11:03:28;101737.81;;;25.71;36.53
81033;BME280;70514;52.478;6.102;2023-06-10T11:05:57;101734.13;;;25.75;35.84
81033;BME280;70514;52.478;6.102;2023-06-10T11:11:24;101733.88;;;25.81;35.96
81033;BME280;70514;52.478;6.102;2023-06-10T11:16:41;101735.56;;;25.84;35.59
81033;BME280;70514;52.478;6.102;2023-06-10T11:19:07;101734.56;;;25.87;35.47
81033;BME280;70514;52.478;6.102;2023-06-10T11:24:21;101716.19;;;26.05;35.56
81033;BME280;70514;52.478;6.102;2023-06-10T11:26:46;101728.13;;;26.14;35.17
81033;BME280;70514;52.478;6.102;2023-06-10T11:29:14;101720.22;;;26.14;35.50
81033;BME280;70514;52.478;6.102;2023-06-10T11:31:45;101720.06;;;26.17;35.02
81033;BME280;70514;52.478;6.102;2023-06-10T11:34:12;101726.09;;;26.20;35.06
81033;BME280;70514;52.478;6.102;2023-06-10T11:36:40;101725.13;;;26.23;35.06
81033;BME280;70514;52.478;6.102;2023-06-10T11:39:07;101720.66;;;26.25;35.32
81033;BME280;70514;52.478;6.102;2023-06-10T11:41:34;101714.16;;;26.32;34.83
81033;BME280;70514;52.478;6.102;2023-06-10T11:44:08;101704.22;;;26.39;34.82
81033;BME280;70514;52.478;6.102;2023-06-10T11:46:33;101719.75;;;26.46;34.35
81033;BME280;70514;52.478;6.102;2023-06-10T11:49:00;101718.94;;;26.44;34.58
81033;BME280;70514;52.478;6.102;2023-06-10T11:51:33;101710.09;;;26.45;34.67
81033;BME280;70514;52.478;6.102;2023-06-10T11:53:58;101717.97;;;26.47;34.49
81033;BME280;70514;52.478;6.102;2023-06-10T11:56:25;101705.63;;;26.47;34.53
81033;BME280;70514;52.478;6.102;2023-06-10T12:01:22;101713.34;;;26.52;34.28
81033;BME280;70514;52.478;6.102;2023-06-10T12:04:03;101703.81;;;26.48;34.22
81033;BME280;70514;52.478;6.102;2023-06-10T12:06:48;101713.25;;;26.53;34.03
81033;BME280;70514;52.478;6.102;2023-06-10T12:09:26;101705.19;;;26.56;34.04
81033;BME280;70514;52.478;6.102;2023-06-10T12:12:02;101706.72;;;26.62;33.76
81033;BME280;70514;52.478;6.102;2023-06-10T12:17:17;101707.81;;;26.77;33.41
81033;BME280;70514;52.478;6.102;2023-06-10T12:19:42;101708.66;;;26.77;33.40
81033;BME280;70514;52.478;6.102;2023-06-10T12:22:08;101706.03;;;26.77;33.46
81033;BME280;70514;52.478;6.102;2023-06-10T12:24:43;101698.16;;;26.76;33.00
81033;BME280;70514;52.478;6.102;2023-06-10T12:27:12;101697.22;;;26.77;32.91
81033;BME280;70514;52.478;6.102;2023-06-10T12:29:39;101695.44;;;26.77;32.66
81033;BME280;70514;52.478;6.102;2023-06-10T12:32:04;101690.00;;;26.80;32.75
81033;BME280;70514;52.478;6.102;2023-06-10T12:34:37;101687.31;;;26.82;32.42
81033;BME280;70514;52.478;6.102;2023-06-10T12:37:04;101690.34;;;26.93;32.17
81033;BME280;70514;52.478;6.102;2023-06-10T12:39:32;101695.38;;;26.99;32.04
81033;BME280;70514;52.478;6.102;2023-06-10T12:41:58;101693.38;;;27.04;31.90
81033;BME280;70514;52.478;6.102;2023-06-10T12:44:31;101694.13;;;27.06;31.56
81033;BME280;70514;52.478;6.102;2023-06-10T12:46:57;101690.50;;;27.09;31.49
81033;BME280;70514;52.478;6.102;2023-06-10T12:49:22;101687.91;;;27.07;31.29
81033;BME280;70514;52.478;6.102;2023-06-10T12:51:47;101689.66;;;27.08;31.45
81033;BME280;70514;52.478;6.102;2023-06-10T12:54:13;101683.34;;;27.11;31.36
81033;BME280;70514;52.478;6.102;2023-06-10T12:56:39;101674.41;;;27.13;30.84
81033;BME280;70514;52.478;6.102;2023-06-10T12:59:04;101677.94;;;27.14;30.46
81033;BME280;70514;52.478;6.102;2023-06-10T13:01:31;101669.19;;;27.12;30.17
81033;BME280;70514;52.478;6.102;2023-06-10T13:03:56;101676.91;;;27.16;30.23
81033;BME280;70514;52.478;6.102;2023-06-10T13:06:22;101674.03;;;27.21;30.00
81033;BME280;70514;52.478;6.102;2023-06-10T13:08:47;101681.16;;;27.20;29.73
81033;BME280;70514;52.478;6.102;2023-06-10T13:11:13;101681.78;;;27.25;29.44